Latest Coastal Weather Observations for Warruwi

IDD60701

Issued at 10:11 pm CST Sunday 1 March 2015 (issued every 10 minutes, with the page automatically refreshed every 10 minutes)

About coastal observations | Map of coastal stations | Coastal observations for NT | Marine services | Other Formats
Station Details ID: 014401 Name: WARRUWI AIRPORT Lat: -11.65 Lon: 133.38 Height: 19.2 m
Data from the previous 72 hours. | See also: Recent months at Warruwi
Date/Time
CST
Temp

°C
Wind Pressure Rain
since 9am
mm
Weather Cloud Vis
km
Sea
Height
m
Swell
Dir
 
Speed
knots
Gust
knots
hPa Trend Height
m
Period
s
Dir
01/10:00pm 28.0 W 11 15 1006.0 - 7.4 - - - - - - -
01/09:30pm 27.6 WNW 8 13 1005.5 - 7.4 - - - - - - -
01/09:00pm 26.5 NW 5 11 1005.6 - 7.4 - - - - - - -
01/08:30pm 28.0 WNW 9 13 1006.2 - 7.4 - - - - - - -
01/08:00pm 26.8 NW 3 5 1005.3 - 7.4 - - - - - - -
01/07:30pm 25.8 W 7 10 1005.3 - 7.4 - - - - - - -
01/07:03pm 23.0 WSW 18 29 1004.4 - 7.2 - - - - - - -
01/07:00pm 22.8 WSW 19 29 1004.2 - 7.0 - - - - - - -
01/06:59pm 22.7 WSW 19 29 1004.2 - 7.0 - - - - - - -
01/06:47pm 22.1 SSW 20 33 1005.0 - 6.8 - - - - - - -
01/06:31pm 26.5 SW 12 33 1005.9 - 0.0 - - - - - - -
01/06:30pm 27.2 WSW 10 24 1006.2 - 0.0 - - - - - - -
01/06:27pm 29.1 W 8 20 1005.9 - 0.0 - - - - - - -
01/06:00pm 29.1 NW 6 9 1003.9 - 0.0 - - - - - - -
01/05:30pm 29.4 NW 5 9 1003.4 - 0.0 - - - - - - -
01/05:00pm 30.0 NNW 5 9 1003.0 - 0.0 - - - - - - -
01/04:30pm 30.9 NW 4 7 1003.1 - 0.0 - - - - - - -
01/04:00pm 31.0 NW 5 8 1003.3 - 0.0 - - - - - - -
01/03:30pm 31.3 WNW 5 7 1004.2 - 0.0 - - - - - - -
01/03:00pm 31.4 W 5 7 1004.2 - 0.0 - - - - - - -
01/02:30pm 31.0 WNW 7 9 1004.3 - 0.0 - - - - - - -
01/02:00pm 30.7 W 9 11 1004.7 - 0.0 - - - - - - -
01/01:30pm 30.2 W 9 11 1005.3 - 0.0 - - - - - - -
01/01:00pm 29.8 W 7 9 1006.0 - 0.0 - - - - - - -
01/12:30pm 29.5 WNW 6 10 1006.8 - 0.0 - - - - - - -
01/12:00pm 29.7 W 9 12 1007.0 - 0.0 - - - - - - -
01/11:30am 29.9 W 8 10 1007.4 - 0.0 - - - - - - -
01/11:00am 29.4 W 7 9 1007.6 - 0.0 - - - - - - -
01/10:30am 29.0 W 7 11 1007.4 - 0.0 - - - - - - -
01/10:00am 28.6 WSW 7 10 1007.4 - 0.0 - - - - - - -
01/09:30am 28.5 WSW 7 9 1007.6 - 0.0 - - - - - - -
01/09:00am 28.3 WSW 6 9 1007.6 - 0.0 - - - - - - -
01/08:30am 27.7 WSW 5 7 1007.7 - 0.0 - - - - - - -
01/08:00am 27.3 WSW 5 7 1007.5 - 0.0 - - - - - - -
01/07:30am 27.1 WSW 6 9 1007.0 - 0.0 - - - - - - -
01/07:00am 27.1 W 6 7 1006.6 - 0.0 - - - - - - -
01/06:30am 26.9 W 7 9 1006.1 - 0.0 - - - - - - -
01/06:00am 26.8 WSW 6 8 1005.6 - 0.0 - - - - - - -
01/05:30am 26.9 W 7 10 1005.4 - 0.0 - - - - - - -
01/05:00am 26.9 W 9 13 1004.9 - 0.0 - - - - - - -
01/04:30am 26.7 W 9 12 1005.3 - 0.0 - - - - - - -
01/04:00am 26.8 W 10 12 1005.2 - 0.0 - - - - - - -
01/03:30am 27.3 W 7 10 1005.2 - 0.0 - - - - - - -
01/03:00am 27.5 W 9 12 1005.8 - 0.0 - - - - - - -
01/02:30am 28.1 WNW 8 12 1005.9 - 0.0 - - - - - - -
01/02:00am 28.0 WNW 7 10 1006.1 - 0.0 - - - - - - -
01/01:30am 28.1 WNW 7 13 1006.3 - 0.0 - - - - - - -
01/01:00am 28.2 WNW 7 10 1006.7 - 0.0 - - - - - - -
01/12:30am 28.3 WNW 10 13 1007.0 - 0.0 - - - - - - -
01/12:00am 28.5 WNW 8 13 1007.2 - 0.0 - - - - - - -
 
Date/Time
CST
Temp

°C
Wind Pressure Rain
since 9am
mm
Weather Cloud Vis
km
Sea
Height
m
Swell
Dir
 
Speed
knots
Gust
knots
hPa Trend Height
m
Period
s
Dir
28/11:30pm 28.4 NW 5 9 1007.2 - 0.0 - - - - - - -
28/11:00pm 28.3 WNW 4 6 1007.6 - 0.0 - - - - - - -
28/10:30pm 27.4 W 2 2 1007.4 - 0.0 - - - - - - -
28/10:00pm 27.5 WNW 1 2 1007.1 - 0.0 - - - - - - -
28/09:30pm 28.1 NW 1 1 1006.9 - 0.0 - - - - - - -
28/09:00pm 28.6 SW 3 5 1006.5 - 0.0 - - - - - - -
28/08:30pm 29.2 W 6 8 1006.7 - 0.0 - - - - - - -
28/08:00pm 28.9 NW 4 7 1005.4 - 0.0 - - - - - - -
28/07:30pm 29.8 W 9 13 1005.3 - 0.0 - - - - - - -
28/07:00pm 29.8 WNW 7 11 1005.2 - 0.0 - - - - - - -
28/06:30pm 29.1 NW 5 8 1004.6 - 0.0 - - - - - - -
28/06:00pm 29.1 NW 5 8 1004.4 - 0.0 - - - - - - -
28/05:30pm 29.5 NW 7 11 1004.3 - 0.0 - - - - - - -
28/05:00pm 30.6 WNW 6 10 1004.4 - 0.0 - - - - - - -
28/04:30pm 28.5 WNW 7 13 1004.6 - 0.0 - - - - - - -
28/04:00pm 29.4 NW 5 11 1004.7 - 0.0 - - - - - - -
28/03:30pm 30.7 NNW 7 12 1004.8 - 0.0 - - - - - - -
28/03:00pm 30.9 NW 7 12 1005.1 - 0.0 - - - - - - -
28/02:30pm 31.6 NNW 6 10 1005.4 - 0.0 - - - - - - -
28/02:00pm 31.4 NW 6 9 1005.8 - 0.0 - - - - - - -
28/01:30pm 31.9 WNW 7 10 1006.4 - 0.0 - - - - - - -
28/01:00pm 31.6 WNW 5 11 1007.0 - 0.0 - - - - - - -
28/12:30pm 31.0 WNW 8 12 1007.4 - 0.0 - - - - - - -
28/12:00pm 29.9 WNW 5 8 1007.6 - 0.0 - - - - - - -
28/11:30am 29.9 WNW 6 9 1007.6 - 0.0 - - - - - - -
28/11:00am 29.3 W 6 10 1007.8 - 0.0 - - - - - - -
28/10:30am 28.8 WNW 7 10 1008.0 - 0.0 - - - - - - -
28/10:00am 28.5 W 8 11 1008.1 - 0.0 - - - - - - -
28/09:30am 28.3 W 9 12 1008.2 - 0.0 - - - - - - -
28/09:00am 27.5 WNW 8 11 1008.2 - 8.2 - - - - - - -
28/08:30am 27.1 W 6 8 1007.9 - 8.2 - - - - - - -
28/08:00am 26.3 W 5 6 1007.6 - 8.2 - - - - - - -
28/07:30am 25.5 W 3 5 1007.0 - 8.2 - - - - - - -
28/07:00am 25.1 W 3 5 1006.7 - 8.2 - - - - - - -
28/06:30am 25.0 SW 3 4 1006.4 - 8.2 - - - - - - -
28/06:00am 25.0 SW 4 6 1006.7 - 8.2 - - - - - - -
28/05:30am 24.9 SW 4 6 1006.3 - 8.2 - - - - - - -
28/05:00am 25.0 WSW 4 7 1006.2 - 8.2 - - - - - - -
28/04:30am 25.5 SW 5 9 1006.3 - 8.2 - - - - - - -
28/04:00am 25.6 W 6 11 1006.5 - 8.2 - - - - - - -
28/03:30am 25.6 WSW 5 8 1006.8 - 8.2 - - - - - - -
28/03:00am 25.4 W 6 9 1006.9 - 8.2 - - - - - - -
28/02:30am 25.3 W 10 14 1007.1 - 8.2 - - - - - - -
28/02:00am 25.4 W 9 11 1007.6 - 8.2 - - - - - - -
28/01:30am 25.4 WNW 8 11 1007.4 - 8.2 - - - - - - -
28/01:00am 25.0 WNW 3 6 1007.4 - 8.2 - - - - - - -
28/12:30am 24.8 WNW 2 3 1007.8 - 8.2 - - - - - - -
28/12:00am 25.1 CALM 0 2 1008.1 - 8.2 - - - - - - -
 
Date/Time
CST
Temp

°C
Wind Pressure Rain
since 9am
mm
Weather Cloud Vis
km
Sea
Height
m
Swell
Dir
 
Speed
knots
Gust
knots
hPa Trend Height
m
Period
s
Dir
27/11:30pm 25.3 SSW 5 8 1008.6 - 8.2 - - - - - - -
27/11:00pm 25.4 WSW 3 6 1008.4 - 8.2 - - - - - - -
27/10:30pm 26.1 WSW 4 6 1008.5 - 8.2 - - - - - - -
27/10:00pm 26.3 WSW 7 11 1008.6 - 8.2 - - - - - - -
27/09:30pm 26.6 WSW 10 14 1008.5 - 8.2 - - - - - - -
27/09:00pm 27.5 WNW 11 14 1007.9 - 8.2 - - - - - - -
27/08:30pm 27.7 WNW 8 13 1008.0 - 8.2 - - - - - - -
27/08:00pm 27.7 WNW 8 14 1007.0 - 8.2 - - - - - - -
27/07:30pm 27.4 NW 6 12 1006.9 - 8.2 - - - - - - -
27/07:00pm 27.4 WNW 5 9 1006.9 - 8.2 - - - - - - -
27/06:30pm 27.2 WNW 6 9 1006.7 - 8.2 - - - - - - -
27/06:00pm 26.9 WNW 8 11 1006.0 - 8.2 Recent precip. - - - - - -
27/05:30pm 26.4 WNW 7 11 1006.1 - 8.2 - - - - - - -
27/05:00pm 25.8 WNW 5 8 1005.8 - 8.0 - - - - - - -
27/04:30pm 25.9 W 6 9 1005.5 - 8.0 - - - - - - -
27/04:00pm 25.6 WNW 8 11 1005.3 - 8.0 - - - - - - -
27/03:30pm 26.1 W 9 12 1005.7 - 6.2 - - - - - - -
27/03:00pm 25.9 W 13 17 1005.8 - 5.2 Rain - - - - - -
27/02:30pm 28.8 WNW 9 16 1005.6 - 0.0 - - - - - - -
27/02:00pm 29.8 NW 7 13 1005.5 - 0.0 - - - - - - -
27/01:30pm 30.1 NNW 5 10 1005.9 - 0.0 - - - - - - -
27/01:00pm 30.1 NNW 6 10 1006.6 - 0.0 - - - - - - -
27/12:30pm 31.3 WNW 5 10 1007.2 - 0.0 - - - - - - -
27/12:00pm 31.1 WNW 5 8 1007.6 - 0.0 - - - - - - -
27/11:30am 30.4 WNW 5 8 1008.0 - 0.0 - - - - - - -
27/11:00am 29.8 WNW 6 7 1008.1 - 0.0 - - - - - - -
27/10:30am 28.7 WNW 5 7 1008.6 - 0.0 - - - - - - -
27/10:00am 28.4 WNW 7 9 1008.8 - 0.0 - - - - - - -
27/09:30am 28.7 W 5 8 1008.7 - 0.0 - - - - - - -
27/09:00am 27.9 W 4 5 1008.4 - 3.6 - - - - - - -
27/08:30am 27.5 WSW 1 4 1008.2 - 3.6 - - - - - - -
27/08:00am 26.4 S 3 5 1008.0 - 3.6 - - - - - - -
27/07:30am 26.1 SSW 4 6 1007.4 - 3.6 - - - - - - -
27/07:00am 26.0 SSW 3 5 1007.3 - 3.6 - - - - - - -
27/06:30am 25.7 S 2 3 1007.1 - 3.6 - - - - - - -
27/06:00am 25.5 SSW 2 3 1007.0 - 3.6 - - - - - - -
27/05:30am 25.5 S 2 3 1006.5 - 3.6 - - - - - - -
27/05:00am 25.6 S 2 3 1006.2 - 3.6 - - - - - - -
27/04:30am 25.8 S 2 2 1006.2 - 3.6 - - - - - - -
27/04:00am 25.9 WSW 2 3 1006.2 - 3.4 - - - - - - -
27/03:30am 26.2 SW 3 5 1006.3 - 3.4 - - - - - - -
27/03:00am 26.6 WSW 4 5 1006.3 - 3.4 - - - - - - -
27/02:30am 27.4 W 8 11 1006.4 - 3.4 - - - - - - -
27/02:00am 27.4 W 7 11 1006.8 - 3.4 - - - - - - -
27/01:30am 27.2 W 8 11 1006.8 - 3.4 - - - - - - -
27/01:00am 27.2 W 9 12 1007.3 - 3.4 - - - - - - -
27/12:30am 27.0 W 8 10 1007.6 - 3.4 - - - - - - -
27/12:00am 26.9 W 7 9 1008.3 - 3.4 - - - - - - -
 
Date/Time
CST
Temp

°C
Wind Pressure Rain
since 9am
mm
Weather Cloud Vis
km
Sea
Height
m
Swell
Dir
 
Speed
knots
Gust
knots
hPa Trend Height
m
Period
s
Dir
26/11:30pm 26.9 W 8 11 1008.7 - 3.4 - - - - - - -
26/11:00pm 26.8 WNW 7 10 1008.8 - 3.4 - - - - - - -
26/10:30pm 26.5 WNW 5 7 1008.7 - 3.4 - - - - - - -

Other Formats:

Comma delimited format used in spreadsheet applications
http://www.bom.gov.au/fwo/IDD60701/IDD60701.94139.axf

JavaScript Object Notation format (JSON) in row-major order
http://www.bom.gov.au/fwo/IDD60701/IDD60701.94139.json